Time;durP1;ratioP1;P1;durP2;ratioP2;P2;SDS_P1;SDS_P2;PMS_P1;PMS_P2;Temp;Humidity;BMP_temperature;BMP_pressure;BME280_temperature;BME280_humidity;BME280_pressure;Samples;Min_cycle;Max_cycle;Signal;HPM_P1;HPM_P2
2020/12/11 00:02:03;;;;;;;40.73;27.00;;;1.70;96.80;;;;;;5114606;28;20505;-78
2020/12/11 00:04:30;;;;;;;42.67;27.40;;;1.70;96.80;;;;;;5110781;28;20432;-77
2020/12/11 00:07:00;;;;;;;39.05;26.05;;;1.70;96.80;;;;;;5096657;28;20493;-78
2020/12/11 00:09:27;;;;;;;38.88;25.65;;;1.80;96.80;;;;;;5092985;28;20412;-78
2020/12/11 00:11:54;;;;;;;39.08;25.75;;;1.80;96.70;;;;;;5096631;28;20495;-78
2020/12/11 00:14:22;;;;;;;42.25;26.83;;;1.80;96.60;;;;;;5092653;28;20416;-78
2020/12/11 00:16:48;;;;;;;41.40;25.92;;;1.70;96.50;;;;;;5114098;28;20469;-78
2020/12/11 00:19:17;;;;;;;40.35;26.05;;;1.70;96.70;;;;;;5092515;28;20404;-78
2020/12/11 00:21:44;;;;;;;42.40;26.33;;;1.70;96.70;;;;;;5113901;28;20450;-78
2020/12/11 00:24:13;;;;;;;43.00;27.00;;;1.70;96.80;;;;;;5094578;28;20404;-78
2020/12/11 00:26:39;;;;;;;43.17;26.20;;;1.80;96.80;;;;;;5094904;28;20440;-78
2020/12/11 00:29:11;;;;;;;42.27;27.23;;;1.80;96.90;;;;;;5096545;28;20428;-78
2020/12/11 00:31:42;;;;;;;41.78;25.48;;;1.80;96.80;;;;;;5110507;28;20396;-78
2020/12/11 00:34:09;;;;;;;39.83;25.80;;;1.80;96.70;;;;;;5113593;28;20431;-78
2020/12/11 00:36:36;;;;;;;41.28;26.08;;;1.80;96.70;;;;;;5109697;28;20841;-78
2020/12/11 00:39:07;;;;;;;42.10;27.20;;;1.80;96.60;;;;;;5113311;28;20856;-78
2020/12/11 00:41:38;;;;;;;38.60;25.23;;;1.80;96.70;;;;;;5092796;28;20436;-78
2020/12/11 00:44:05;;;;;;;39.03;25.77;;;1.90;96.40;;;;;;5113675;28;20400;-77
2020/12/11 00:46:31;;;;;;;41.20;26.67;;;1.80;96.50;;;;;;5092659;28;20469;-77
2020/12/11 00:49:03;;;;;;;43.10;27.20;;;1.80;96.50;;;;;;5095603;28;20419;-78
2020/12/11 00:51:36;;;;;;;45.30;27.90;;;1.80;96.60;;;;;;5092614;28;20408;-78
2020/12/11 00:54:03;;;;;;;41.37;26.90;;;1.80;96.60;;;;;;5095203;28;20829;-78
2020/12/11 00:56:32;;;;;;;48.58;29.35;;;1.80;96.60;;;;;;5092381;28;20453;-78
2020/12/11 00:59:01;;;;;;;24.60;17.85;;;1.80;96.60;;;;;;5113283;28;20408;-77
2020/12/11 01:01:27;;;;;;;29.98;21.70;;;1.90;96.10;;;;;;5109786;28;20408;-78
2020/12/11 01:03:56;;;;;;;36.03;24.15;;;2.00;95.20;;;;;;5113263;28;20397;-78
2020/12/11 01:06:27;;;;;;;39.05;25.33;;;2.00;95.40;;;;;;5094771;28;21012;-78
2020/12/11 01:08:54;;;;;;;41.05;26.30;;;1.90;95.80;;;;;;5091740;28;20447;-78
2020/12/11 01:11:20;;;;;;;40.97;26.55;;;1.90;96.00;;;;;;5113281;28;20408;-78
2020/12/11 01:13:46;;;;;;;42.60;27.47;;;1.90;96.30;;;;;;5091798;28;20450;-78
2020/12/11 01:16:15;;;;;;;41.97;27.20;;;1.90;96.50;;;;;;5095162;28;20393;-77
2020/12/11 01:18:42;;;;;;;42.15;26.02;;;1.90;96.50;;;;;;5079431;28;20410;-77
2020/12/11 01:21:13;;;;;;;39.90;26.23;;;2.00;96.50;;;;;;5075231;28;20463;-78
2020/12/11 01:23:42;;;;;;;39.08;26.23;;;2.00;96.50;;;;;;5081238;28;20821;-78
2020/12/11 01:26:09;;;;;;;40.92;26.58;;;2.00;96.60;;;;;;5113121;28;20408;-78
2020/12/11 01:28:38;;;;;;;40.90;26.50;;;2.00;96.60;;;;;;5091679;28;20457;-78
2020/12/11 01:31:07;;;;;;;39.85;26.15;;;2.00;96.70;;;;;;5095151;28;20400;-78
2020/12/11 01:33:34;;;;;;;38.67;25.77;;;2.00;96.70;;;;;;5109220;28;20428;-78
2020/12/11 01:36:00;;;;;;;37.58;24.98;;;2.00;96.60;;;;;;5095146;28;20432;-78
2020/12/11 01:38:29;;;;;;;43.97;27.52;;;2.00;96.60;;;;;;5092071;28;20772;-78
2020/12/11 01:40:59;;;;;;;40.50;26.40;;;2.00;96.60;;;;;;5074264;28;20406;-78
2020/12/11 01:43:27;;;;;;;32.97;23.67;;;2.00;96.70;;;;;;5092218;28;20506;-78
2020/12/11 01:45:56;;;;;;;30.33;22.05;;;2.00;96.50;;;;;;5089792;28;20753;-78
2020/12/11 01:48:26;;;;;;;29.27;21.80;;;2.00;95.90;;;;;;5112457;28;20420;-78
2020/12/11 01:50:52;;;;;;;29.45;21.75;;;2.10;95.00;;;;;;5107562;28;20465;-78
2020/12/11 01:53:21;;;;;;;28.60;21.17;;;2.10;95.00;;;;;;5094456;28;20456;-78
2020/12/11 01:55:49;;;;;;;29.20;21.13;;;2.00;95.20;;;;;;5091426;28;20451;-78
2020/12/11 01:58:24;;;;;;;30.23;20.88;;;2.00;94.80;;;;;;5112791;28;20435;-77
2020/12/11 02:00:53;;;;;;;27.17;19.00;;;2.00;94.60;;;;;;5091052;28;20474;-78
2020/12/11 02:03:24;;;;;;;27.35;18.98;;;2.00;94.40;;;;;;5094107;28;20416;-78
2020/12/11 02:05:50;;;;;;;28.40;19.35;;;2.00;94.30;;;;;;5108762;28;20412;-78
2020/12/11 02:08:17;;;;;;;27.42;18.88;;;1.90;94.40;;;;;;5094294;28;20396;-78
2020/12/11 02:10:47;;;;;;;23.03;16.40;;;2.00;94.30;;;;;;5108467;28;20448;-78
2020/12/11 02:13:15;;;;;;;20.38;14.60;;;2.00;93.80;;;;;;5093934;28;20908;-78
2020/12/11 02:15:44;;;;;;;21.63;14.80;;;2.10;93.40;;;;;;5090714;28;20445;-78
2020/12/11 02:18:11;;;;;;;20.00;14.73;;;2.00;93.60;;;;;;5093459;28;20400;-78
2020/12/11 02:20:37;;;;;;;20.80;14.93;;;1.90;94.00;;;;;;5094213;28;20401;-78
2020/12/11 02:23:03;;;;;;;19.95;14.73;;;1.90;93.90;;;;;;5107997;28;20404;-78
2020/12/11 02:25:32;;;;;;;20.25;14.80;;;1.80;94.00;;;;;;5094187;28;20495;-77
2020/12/11 02:28:01;;;;;;;20.35;15.07;;;1.80;93.90;;;;;;5090427;28;20466;-78
2020/12/11 02:30:28;;;;;;;22.00;16.20;;;1.80;94.10;;;;;;5111621;28;20457;-78
2020/12/11 02:32:56;;;;;;;22.40;15.20;;;1.80;94.60;;;;;;5090580;28;20408;-78
2020/12/11 02:35:23;;;;;;;20.00;14.13;;;1.80;94.60;;;;;;5093329;28;20423;-77
2020/12/11 02:37:51;;;;;;;20.87;14.50;;;1.80;94.30;;;;;;5090643;28;20412;-78
2020/12/11 02:40:18;;;;;;;23.60;16.73;;;1.80;94.40;;;;;;5093727;28;20857;-78
2020/12/11 02:42:47;;;;;;;23.73;16.38;;;1.80;94.60;;;;;;5084369;28;20402;-78
2020/12/11 02:45:15;;;;;;;25.17;16.90;;;1.80;94.80;;;;;;5073459;28;20800;-77
2020/12/11 02:47:41;;;;;;;27.67;18.77;;;1.80;95.10;;;;;;5073101;28;21133;-78
2020/12/11 02:50:08;;;;;;;24.15;17.13;;;1.80;95.10;;;;;;5111374;28;20420;-77
2020/12/11 02:52:34;;;;;;;23.45;16.48;;;1.80;95.20;;;;;;5091625;28;20411;-77
2020/12/11 02:55:01;;;;;;;21.83;15.13;;;1.80;95.10;;;;;;5109682;28;20922;-78
2020/12/11 02:57:27;;;;;;;20.97;14.33;;;1.80;94.80;;;;;;5111275;28;20443;-78
2020/12/11 02:59:53;;;;;;;23.33;13.98;;;1.80;94.70;;;;;;5089324;28;20529;-78
2020/12/11 03:02:23;;;;;;;18.57;13.03;;;1.90;94.60;;;;;;5110501;28;20400;-77
2020/12/11 03:04:50;;;;;;;18.75;13.30;;;1.80;94.30;;;;;;5107788;28;20422;-78
2020/12/11 03:07:16;;;;;;;21.97;14.27;;;1.90;94.10;;;;;;5093521;28;20400;-78
2020/12/11 03:09:43;;;;;;;22.27;14.15;;;1.80;94.10;;;;;;5107026;28;20473;-77
2020/12/11 03:12:09;;;;;;;21.20;14.38;;;1.90;94.40;;;;;;5093264;28;20476;-78
2020/12/11 03:14:36;;;;;;;21.70;14.77;;;1.90;94.60;;;;;;5089607;28;20512;-78
2020/12/11 03:17:02;;;;;;;24.10;15.43;;;1.80;94.60;;;;;;5093002;28;20507;-78
2020/12/11 03:19:28;;;;;;;24.33;15.73;;;1.80;94.80;;;;;;5107586;28;20507;-78
2020/12/11 03:21:57;;;;;;;25.60;15.93;;;1.80;94.90;;;;;;5093122;28;20457;-78
2020/12/11 03:24:25;;;;;;;26.40;16.33;;;1.80;94.90;;;;;;5091299;28;20484;-78
2020/12/11 03:26:54;;;;;;;28.77;16.85;;;1.80;95.10;;;;;;5110045;28;20488;-77
2020/12/11 03:29:23;;;;;;;28.63;16.58;;;1.80;95.30;;;;;;5096247;28;20436;-77
2020/12/11 03:31:49;;;;;;;26.73;17.00;;;1.80;95.30;;;;;;5093161;28;20424;-78
2020/12/11 03:34:15;;;;;;;25.73;17.08;;;1.80;95.10;;;;;;5097205;28;20428;-78
2020/12/11 03:36:42;;;;;;;24.75;16.65;;;1.80;95.10;;;;;;5093735;28;20461;-78
2020/12/11 03:39:10;;;;;;;24.07;16.13;;;1.80;95.10;;;;;;5097086;28;20411;-77
2020/12/11 03:41:37;;;;;;;25.40;17.25;;;1.80;95.10;;;;;;5093921;28;20460;-78
2020/12/11 03:44:03;;;;;;;26.13;17.05;;;1.80;95.00;;;;;;5114805;28;20408;-78
2020/12/11 03:46:32;;;;;;;24.10;16.58;;;1.80;94.90;;;;;;5093715;28;20725;-78
2020/12/11 03:48:59;;;;;;;24.20;16.77;;;1.80;94.90;;;;;;5114778;28;20412;-77
2020/12/11 03:51:26;;;;;;;23.95;16.40;;;1.80;94.80;;;;;;5094055;28;20408;-78
2020/12/11 03:53:55;;;;;;;25.42;17.15;;;1.80;94.70;;;;;;5114930;28;20431;-78
2020/12/11 03:56:21;;;;;;;24.98;17.60;;;1.80;94.60;;;;;;5093626;28;20407;-78
2020/12/11 03:58:47;;;;;;;27.30;18.85;;;1.80;94.70;;;;;;5114601;28;20852;-77
2020/12/11 04:01:15;;;;;;;27.90;18.75;;;1.90;94.50;;;;;;5114529;28;20523;-78
2020/12/11 04:03:42;;;;;;;26.60;18.27;;;1.90;94.30;;;;;;5092754;28;20728;-77
2020/12/11 04:06:14;;;;;;;27.38;19.08;;;1.80;94.40;;;;;;5076173;28;20735;-78
2020/12/11 04:08:42;;;;;;;27.48;19.50;;;1.90;94.60;;;;;;5106875;28;20911;-78
2020/12/11 04:11:10;;;;;;;30.60;20.25;;;1.90;94.50;;;;;;5114623;28;20523;-78
2020/12/11 04:13:37;;;;;;;27.58;19.80;;;1.90;94.50;;;;;;5111103;28;20420;-78
2020/12/11 04:16:06;;;;;;;27.30;19.95;;;1.90;94.60;;;;;;5096405;28;20469;-78
2020/12/11 04:18:33;;;;;;;29.35;20.50;;;1.80;94.60;;;;;;5110766;28;20408;-77
2020/12/11 04:20:59;;;;;;;39.00;25.30;;;1.90;94.70;;;;;;5096115;28;20520;-78
2020/12/11 04:23:26;;;;;;;30.85;21.23;;;1.90;94.80;;;;;;5092365;28;20428;-78
2020/12/11 04:25:54;;;;;;;29.60;21.10;;;1.90;94.60;;;;;;5095800;28;20416;-78
2020/12/11 04:28:21;;;;;;;29.35;21.30;;;1.90;94.60;;;;;;5110650;28;20460;-78
2020/12/11 04:30:50;;;;;;;33.58;22.70;;;1.90;94.70;;;;;;5096118;28;20416;-78
2020/12/11 04:33:17;;;;;;;31.77;22.33;;;1.90;95.00;;;;;;5094513;28;20434;-78
2020/12/11 04:35:43;;;;;;;31.80;22.33;;;1.80;95.00;;;;;;5094881;28;20741;-78
2020/12/11 04:38:10;;;;;;;31.92;22.08;;;1.80;95.10;;;;;;5096104;28;20408;-78
2020/12/11 04:40:36;;;;;;;31.50;22.17;;;1.80;94.90;;;;;;5109306;28;20404;-78
2020/12/11 04:43:09;;;;;;;32.92;22.85;;;1.90;94.90;;;;;;5096322;28;20515;-78
2020/12/11 04:45:41;;;;;;;28.55;20.92;;;1.90;94.90;;;;;;5092400;28;20440;-78
2020/12/11 04:48:13;;;;;;;30.63;20.40;;;1.80;94.70;;;;;;5112942;28;20465;-78
2020/12/11 04:50:39;;;;;;;28.40;20.60;;;1.90;94.60;;;;;;5093047;28;20758;-78
2020/12/11 04:53:14;;;;;;;28.15;21.02;;;1.80;94.60;;;;;;5113538;28;20396;-78
2020/12/11 04:55:47;;;;;;;27.95;19.88;;;1.80;94.70;;;;;;5091897;28;20874;-78
2020/12/11 04:58:16;;;;;;;28.45;20.20;;;1.90;94.70;;;;;;5095951;28;20435;-77
2020/12/11 05:00:43;;;;;;;29.83;20.40;;;1.90;94.70;;;;;;5092157;28;20448;-78
2020/12/11 05:03:13;;;;;;;26.58;19.85;;;1.90;94.50;;;;;;5112571;28;20420;-78
2020/12/11 05:05:40;;;;;;;25.90;18.98;;;1.80;94.50;;;;;;5109637;28;20408;-77
2020/12/11 05:08:20;;;;;;;27.42;19.77;;;1.80;94.70;;;;;;5113115;28;20852;-77
2020/12/11 05:10:47;;;;;;;26.33;19.10;;;1.80;94.80;;;;;;5092401;28;20409;-78
2020/12/11 05:13:19;;;;;;;28.08;20.23;;;1.90;94.60;;;;;;5095382;28;20420;-78
2020/12/11 05:16:05;;;;;;;28.87;21.67;;;1.90;94.30;;;;;;5092341;28;20453;-78
2020/12/11 05:18:35;;;;;;;29.52;21.23;;;1.80;94.50;;;;;;5075210;28;20402;-78
2020/12/11 05:21:38;;;;;;;28.25;19.17;;;1.80;94.60;;;;;;5090635;28;20455;-78
2020/12/11 05:24:06;;;;;;;26.20;18.67;;;1.80;94.50;;;;;;5043660;28;20857;-77
2020/12/11 05:26:34;;;;;;;29.33;20.23;;;1.80;94.50;;;;;;5086925;28;20943;-78
2020/12/11 05:29:04;;;;;;;27.90;20.08;;;1.80;94.50;;;;;;5112833;28;20440;-77
2020/12/11 05:31:30;;;;;;;27.58;19.70;;;1.80;94.60;;;;;;5112214;28;20432;-77
2020/12/11 05:34:13;;;;;;;28.15;20.13;;;1.80;94.60;;;;;;5109385;28;20511;-77
2020/12/11 05:36:44;;;;;;;27.73;19.77;;;1.80;94.60;;;;;;5112795;28;20469;-77
2020/12/11 05:39:11;;;;;;;28.50;19.77;;;1.80;94.50;;;;;;5107997;28;20408;-77
2020/12/11 05:41:38;;;;;;;29.42;20.13;;;1.80;94.60;;;;;;5112925;28;20400;-78
2020/12/11 05:44:24;;;;;;;27.27;19.42;;;1.80;94.60;;;;;;5091659;28;20469;-78
2020/12/11 05:46:51;;;;;;;28.90;20.02;;;1.70;94.70;;;;;;5095457;28;20448;-78
2020/12/11 05:49:29;;;;;;;27.73;20.10;;;1.80;94.70;;;;;;5091514;28;20408;-77
2020/12/11 05:52:18;;;;;;;27.40;19.37;;;1.70;94.60;;;;;;5077887;28;20842;-78
2020/12/11 05:54:53;;;;;;;28.30;20.30;;;1.70;94.50;;;;;;5090904;28;20448;-78
2020/12/11 05:57:26;;;;;;;27.10;19.53;;;1.70;94.70;;;;;;5112214;28;20424;-78
2020/12/11 05:59:58;;;;;;;27.63;20.38;;;1.70;94.60;;;;;;5107914;28;20898;-77
2020/12/11 06:02:30;;;;;;;27.60;19.55;;;1.70;94.70;;;;;;5112428;28;20424;-78
2020/12/11 06:05:02;;;;;;;28.33;20.40;;;1.70;94.70;;;;;;5098468;28;20391;-78
2020/12/11 06:07:36;;;;;;;26.35;19.30;;;1.70;94.80;;;;;;5094373;28;20409;-78
2020/12/11 06:10:04;;;;;;;27.02;18.60;;;1.70;94.70;;;;;;5090019;28;20457;-77
2020/12/11 06:12:31;;;;;;;27.60;19.70;;;1.70;94.70;;;;;;5094480;28;20501;-78
2020/12/11 06:15:05;;;;;;;25.13;18.67;;;1.70;94.70;;;;;;5090868;28;20489;-77
2020/12/11 06:18:00;;;;;;;26.00;19.50;;;1.70;94.60;;;;;;5111989;28;20457;-78
2020/12/11 06:20:28;;;;;;;26.25;18.98;;;1.70;94.70;;;;;;5105550;28;20408;-78
2020/12/11 06:23:24;;;;;;;26.00;19.23;;;1.70;94.70;;;;;;5111940;28;20884;-77
2020/12/11 06:25:56;;;;;;;27.38;19.90;;;1.70;94.60;;;;;;5108037;28;20412;-78
2020/12/11 06:28:35;;;;;;;25.80;17.90;;;1.70;94.80;;;;;;5094102;28;20777;-77
2020/12/11 06:31:07;;;;;;;25.48;18.75;;;1.80;94.80;;;;;;5090810;28;20476;-78
2020/12/11 06:33:35;;;;;;;26.10;18.93;;;1.80;94.70;;;;;;5111499;28;20404;-77
2020/12/11 06:36:05;;;;;;;24.65;18.17;;;1.80;94.70;;;;;;5090790;28;20412;-78
2020/12/11 06:38:42;;;;;;;25.80;17.95;;;1.80;94.70;;;;;;5093482;28;20401;-78
2020/12/11 06:41:09;;;;;;;24.55;17.92;;;1.80;94.50;;;;;;5108121;28;20400;-78
2020/12/11 06:43:45;;;;;;;25.52;18.00;;;1.80;94.40;;;;;;5111247;28;20840;-77
2020/12/11 06:46:15;;;;;;;26.55;19.15;;;1.80;94.40;;;;;;5090726;28;20432;-78
2020/12/11 06:49:11;;;;;;;28.50;19.33;;;1.70;94.50;;;;;;5093028;28;20912;-77
2020/12/11 06:51:47;;;;;;;26.45;18.95;;;1.70;94.50;;;;;;5069220;28;20411;-77
2020/12/11 06:54:20;;;;;;;26.88;19.83;;;1.80;94.50;;;;;;5092483;28;20437;-77
2020/12/11 06:56:50;;;;;;;26.23;19.13;;;1.80;94.70;;;;;;5088152;28;20461;-78
2020/12/11 06:59:24;;;;;;;29.08;19.75;;;1.80;94.60;;;;;;5080158;28;20479;-78
2020/12/11 07:02:15;;;;;;;27.50;20.05;;;1.80;94.70;;;;;;5107820;28;20407;-78
2020/12/11 07:04:44;;;;;;;30.05;21.20;;;1.80;94.70;;;;;;5080751;28;20427;-78
2020/12/11 07:07:13;;;;;;;31.02;21.88;;;1.80;94.50;;;;;;5107078;28;20466;-78
2020/12/11 07:09:44;;;;;;;33.13;22.88;;;1.80;94.70;;;;;;5093475;28;20480;-78
2020/12/11 07:12:14;;;;;;;31.45;22.30;;;1.80;94.50;;;;;;5111090;28;20432;-78
2020/12/11 07:14:49;;;;;;;32.70;23.10;;;1.80;94.60;;;;;;5092115;28;20552;-78
2020/12/11 07:17:29;;;;;;;35.08;23.75;;;1.80;94.40;;;;;;5093411;28;20471;-78
2020/12/11 07:19:56;;;;;;;36.15;24.73;;;1.80;94.90;;;;;;5107884;28;20412;-78
2020/12/11 07:22:25;;;;;;;36.38;25.05;;;1.90;94.50;;;;;;5110297;28;20412;-78
2020/12/11 07:24:54;;;;;;;34.63;23.92;;;1.80;94.60;;;;;;5107304;28;20533;-77
2020/12/11 07:27:25;;;;;;;34.50;24.20;;;1.80;94.70;;;;;;5110792;28;20412;-78
2020/12/11 07:29:51;;;;;;;34.88;24.30;;;1.80;94.90;;;;;;5107068;28;20452;-78
2020/12/11 07:32:21;;;;;;;37.53;25.50;;;1.80;94.80;;;;;;5111481;28;20400;-78
2020/12/11 07:34:48;;;;;;;36.72;25.50;;;1.80;94.70;;;;;;5089043;28;20799;-78
2020/12/11 07:37:17;;;;;;;35.75;24.52;;;1.80;94.90;;;;;;5093310;28;20416;-78
2020/12/11 07:39:44;;;;;;;37.43;25.47;;;1.80;94.70;;;;;;5106941;28;20398;-78
2020/12/11 07:42:19;;;;;;;34.22;24.02;;;1.80;94.70;;;;;;5110929;28;20408;-78
2020/12/11 07:44:46;;;;;;;35.07;23.63;;;1.90;94.60;;;;;;5088585;28;20463;-78
2020/12/11 07:47:17;;;;;;;34.35;24.35;;;1.80;94.60;;;;;;5093197;28;20422;-77
2020/12/11 07:49:49;;;;;;;35.85;24.58;;;1.80;94.60;;;;;;5089668;28;20412;-77
2020/12/11 07:52:27;;;;;;;33.05;22.58;;;1.80;94.70;;;;;;5110601;28;20847;-77
2020/12/11 07:54:56;;;;;;;32.13;22.73;;;1.90;94.60;;;;;;5088875;28;20462;-78
2020/12/11 07:57:23;;;;;;;32.40;22.85;;;1.90;94.30;;;;;;5091996;28;20949;-77
2020/12/11 07:59:57;;;;;;;31.85;22.38;;;1.80;94.50;;;;;;5096537;28;20412;-78
2020/12/11 08:02:24;;;;;;;30.33;21.63;;;1.80;94.50;;;;;;5090930;28;20411;-78
2020/12/11 08:04:51;;;;;;;30.58;21.85;;;1.90;94.40;;;;;;5093024;28;20465;-78
2020/12/11 08:07:29;;;;;;;30.00;21.05;;;1.90;94.40;;;;;;5089060;28;20412;-78
2020/12/11 08:10:08;;;;;;;28.90;20.17;;;1.90;94.30;;;;;;5072442;28;20414;-78
2020/12/11 08:12:39;;;;;;;28.55;19.75;;;1.90;94.30;;;;;;5085945;28;20404;-78
2020/12/11 08:15:09;;;;;;;28.38;19.10;;;1.90;94.60;;;;;;5110803;28;20911;-77
2020/12/11 08:17:37;;;;;;;25.10;17.85;;;2.00;94.20;;;;;;5092839;28;20415;-78
2020/12/11 08:20:07;;;;;;;25.88;18.02;;;2.00;94.40;;;;;;5113923;28;20487;-78
2020/12/11 08:22:40;;;;;;;23.92;17.45;;;1.90;94.30;;;;;;5092897;28;20412;-77
2020/12/11 08:25:22;;;;;;;23.03;16.63;;;2.00;94.30;;;;;;5096360;28;20455;-78
2020/12/11 08:27:52;;;;;;;20.33;15.68;;;2.00;94.20;;;;;;5092648;28;20463;-78
2020/12/11 08:30:23;;;;;;;21.17;15.40;;;2.00;94.10;;;;;;5096409;28;20546;-78
2020/12/11 08:32:50;;;;;;;26.27;14.73;;;2.00;94.10;;;;;;5109430;28;20396;-78
2020/12/11 08:35:24;;;;;;;20.45;14.93;;;2.00;94.00;;;;;;5096695;28;20481;-78
2020/12/11 08:38:01;;;;;;;19.00;13.70;;;2.00;94.00;;;;;;5103351;28;20412;-78
2020/12/11 08:40:30;;;;;;;19.13;14.07;;;2.00;93.90;;;;;;5114007;28;20449;-78
2020/12/11 08:49:34;;;;;;;18.25;13.43;;;2.20;93.80;;;;;;5109020;28;20412;-78
2020/12/11 08:51:41;;;;;;;19.55;13.07;;;2.20;93.70;;;;;;5102767;28;20458;-78
2020/12/11 08:54:08;;;;;;;15.35;12.02;;;2.20;93.50;;;;;;5087170;28;20512;-78
2020/12/11 08:56:48;;;;;;;16.17;12.23;;;2.20;93.50;;;;;;5093656;28;20745;-78
2020/12/11 08:59:15;;;;;;;18.63;13.37;;;2.20;93.50;;;;;;5106773;28;20867;-78
2020/12/11 09:01:41;;;;;;;16.70;12.18;;;2.30;93.20;;;;;;5094451;28;20444;-78
2020/12/11 09:04:08;;;;;;;15.03;11.43;;;2.30;93.30;;;;;;5091088;28;20436;-77
2020/12/11 09:06:35;;;;;;;16.67;12.30;;;2.30;93.20;;;;;;5094287;28;20518;-78
2020/12/11 09:09:06;;;;;;;15.38;11.27;;;2.30;93.40;;;;;;5108418;28;20400;-78
2020/12/11 09:11:40;;;;;;;13.68;10.80;;;2.30;93.20;;;;;;5111451;28;20423;-78
2020/12/11 09:14:06;;;;;;;15.40;11.23;;;2.30;93.10;;;;;;5092347;28;20528;-77
2020/12/11 09:16:33;;;;;;;13.95;10.50;;;2.30;93.00;;;;;;5104052;28;20495;-78
2020/12/11 09:19:00;;;;;;;12.98;10.48;;;2.40;93.00;;;;;;5093749;28;20713;-78
2020/12/11 09:21:29;;;;;;;15.27;11.25;;;2.40;92.60;;;;;;5089844;28;20428;-78
2020/12/11 09:24:00;;;;;;;15.05;11.63;;;2.40;92.90;;;;;;5089012;28;20410;-78
2020/12/11 09:26:28;;;;;;;16.25;11.27;;;2.40;92.90;;;;;;5070730;28;20854;-78
2020/12/11 09:29:11;;;;;;;17.02;10.57;;;2.40;93.00;;;;;;5094016;28;20498;-78
2020/12/11 09:31:43;;;;;;;13.93;10.15;;;2.50;92.90;;;;;;5092204;28;20493;-78
2020/12/11 09:34:10;;;;;;;14.02;10.82;;;2.50;92.40;;;;;;5111082;28;20470;-78
2020/12/11 09:36:42;;;;;;;17.40;11.68;;;2.50;92.60;;;;;;5104663;28;20408;-78
2020/12/11 09:39:10;;;;;;;15.80;11.52;;;2.40;92.90;;;;;;5074632;28;20506;-78
2020/12/11 09:41:56;;;;;;;16.17;11.23;;;2.50;92.70;;;;;;5078850;28;20691;-78
2020/12/11 09:49:47;;;;;;;17.50;12.23;;;2.50;92.80;;;;;;5091405;28;20398;-79
2020/12/11 09:54:57;;;;;;;15.93;11.73;;;2.60;92.60;;;;;;5090933;28;20583;-78
2020/12/11 09:57:24;;;;;;;15.70;11.90;;;2.70;92.50;;;;;;5095294;28;20427;-78
2020/12/11 09:59:54;;;;;;;15.98;12.40;;;2.70;92.60;;;;;;5093245;28;20438;-78
2020/12/11 10:02:39;;;;;;;16.92;12.38;;;2.70;92.60;;;;;;5105753;28;20401;-78
2020/12/11 10:05:06;;;;;;;17.92;13.55;;;2.70;92.70;;;;;;5093440;28;20416;-78
2020/12/11 10:07:33;;;;;;;20.50;13.83;;;2.70;92.80;;;;;;5107825;28;20415;-78
2020/12/11 10:10:01;;;;;;;19.55;13.90;;;2.80;92.90;;;;;;5092904;28;20416;-78
2020/12/11 10:12:29;;;;;;;19.27;13.73;;;2.80;92.70;;;;;;5089688;28;20404;-78
2020/12/11 10:15:09;;;;;;;19.38;14.07;;;2.80;92.50;;;;;;5093034;28;20490;-78
2020/12/11 10:17:36;;;;;;;18.67;13.65;;;2.80;92.90;;;;;;5093510;28;20404;-78
2020/12/11 10:20:03;;;;;;;17.30;13.07;;;2.80;92.80;;;;;;5084137;28;20406;-78
2020/12/11 10:22:30;;;;;;;18.57;13.90;;;2.80;92.70;;;;;;5102714;28;20462;-78
2020/12/11 10:24:59;;;;;;;19.00;14.27;;;2.80;92.70;;;;;;5106509;28;20423;-78
2020/12/11 10:27:28;;;;;;;18.40;13.77;;;2.80;92.70;;;;;;5110173;28;20404;-78
2020/12/11 10:29:59;;;;;;;20.05;13.88;;;2.80;92.50;;;;;;5089905;28;20953;-78
2020/12/11 10:32:25;;;;;;;20.20;14.17;;;2.90;92.70;;;;;;5110416;28;20404;-78
2020/12/11 10:34:54;;;;;;;17.85;13.10;;;2.90;92.80;;;;;;5089056;28;20427;-78
2020/12/11 10:37:20;;;;;;;17.77;12.75;;;3.00;92.70;;;;;;5110240;28;20400;-78
2020/12/11 10:39:49;;;;;;;17.85;12.15;;;3.00;92.30;;;;;;5089045;28;20465;-78
2020/12/11 10:42:18;;;;;;;16.17;12.10;;;3.00;92.20;;;;;;5092546;28;20440;-78
2020/12/11 10:44:45;;;;;;;15.30;11.88;;;3.00;92.30;;;;;;5098547;28;20473;-78
2020/12/11 10:47:12;;;;;;;16.48;12.15;;;3.00;92.20;;;;;;5109717;28;20495;-78
2020/12/11 10:49:40;;;;;;;14.60;11.38;;;3.10;92.30;;;;;;5088947;28;20512;-78
2020/12/11 10:52:09;;;;;;;15.00;10.95;;;3.10;92.50;;;;;;5108648;28;20894;-78
2020/12/11 10:54:36;;;;;;;13.32;10.40;;;3.10;91.60;;;;;;5092213;28;20460;-78
2020/12/11 10:57:02;;;;;;;13.55;9.90;;;3.10;91.90;;;;;;5072766;28;20410;-78
2020/12/11 10:59:31;;;;;;;13.43;10.50;;;3.00;91.80;;;;;;5089956;28;20455;-77
2020/12/11 11:01:57;;;;;;;14.10;10.75;;;3.00;91.70;;;;;;5089082;28;20401;-78
2020/12/11 11:04:26;;;;;;;13.40;10.13;;;3.00;92.10;;;;;;5092121;28;20484;-78
2020/12/11 11:07:04;;;;;;;12.38;9.50;;;3.00;91.90;;;;;;5106516;28;20422;-78
2020/12/11 11:12:14;;;;;;;14.70;10.85;;;3.00;92.00;;;;;;5106884;28;20454;-78
2020/12/11 11:28:05;;;;;;;16.23;11.77;;;3.10;92.20;;;;;;5106127;28;20433;-78
2020/12/11 11:30:35;;;;;;;15.80;11.70;;;3.20;92.00;;;;;;5109724;28;20404;-78
2020/12/11 11:33:02;;;;;;;16.23;11.85;;;3.20;91.80;;;;;;5106160;28;20493;-78
2020/12/11 11:35:30;;;;;;;16.55;12.57;;;3.20;91.70;;;;;;5091640;28;20424;-78
2020/12/11 11:37:59;;;;;;;18.70;12.50;;;3.20;92.20;;;;;;5088426;28;20477;-78
2020/12/11 11:40:25;;;;;;;19.27;13.30;;;3.10;92.00;;;;;;5092385;28;20955;-78
2020/12/11 11:42:52;;;;;;;18.02;13.40;;;3.10;92.00;;;;;;5087953;28;20465;-78
2020/12/11 11:45:22;;;;;;;18.15;12.77;;;3.10;92.20;;;;;;5092419;28;20497;-78
2020/12/11 11:47:54;;;;;;;17.75;13.18;;;3.10;92.20;;;;;;5106415;28;20416;-78
2020/12/11 11:55:26;;;;;;;16.00;11.90;;;3.20;92.00;;;;;;5091170;28;20591;-78
2020/12/11 11:57:55;;;;;;;15.80;11.70;;;3.20;91.90;;;;;;5101558;28;20419;-78
2020/12/11 12:00:22;;;;;;;17.02;12.35;;;3.20;92.20;;;;;;5091569;28;20411;-77
2020/12/11 12:02:50;;;;;;;16.20;11.57;;;3.20;92.10;;;;;;5113821;28;20802;-78
2020/12/11 12:05:17;;;;;;;15.68;12.13;;;3.20;92.00;;;;;;5109934;28;20850;-78
2020/12/11 12:07:43;;;;;;;16.65;12.05;;;3.20;91.90;;;;;;5113664;28;20478;-78
2020/12/11 12:10:12;;;;;;;15.45;11.73;;;3.20;92.00;;;;;;5092046;28;20461;-78
2020/12/11 12:12:42;;;;;;;16.63;11.73;;;3.20;91.90;;;;;;5112830;28;20412;-78
2020/12/11 12:15:19;;;;;;;14.77;11.03;;;3.20;92.00;;;;;;5104642;28;20424;-78
2020/12/11 12:20:34;;;;;;;15.43;11.35;;;3.30;91.90;;;;;;5109928;28;20495;-78
2020/12/11 12:28:48;;;;;;;15.80;11.32;;;3.20;91.80;;;;;;5113180;28;20408;-78
2020/12/11 12:31:18;;;;;;;15.52;11.50;;;3.20;91.80;;;;;;5090105;28;20424;-78
2020/12/11 12:39:02;;;;;;;17.55;12.02;;;3.20;91.90;;;;;;5113041;28;20845;-78
2020/12/11 12:44:13;;;;;;;18.67;12.88;;;3.30;91.90;;;;;;5112179;28;20875;-78
2020/12/11 12:46:45;;;;;;;22.43;15.93;;;3.30;91.90;;;;;;5090002;28;20469;-77
2020/12/11 12:49:12;;;;;;;18.48;12.68;;;3.30;91.90;;;;;;5095027;28;20461;-78
2020/12/11 12:51:41;;;;;;;19.55;13.13;;;3.30;91.60;;;;;;5108472;28;20469;-78
2020/12/11 12:54:07;;;;;;;16.50;12.15;;;3.30;91.70;;;;;;5094745;28;20424;-78
2020/12/11 12:56:50;;;;;;;18.88;12.75;;;3.20;91.40;;;;;;5095065;28;20651;-78
2020/12/11 13:07:06;;;;;;;19.10;13.63;;;3.10;92.10;;;;;;5092277;28;20414;-78
2020/12/11 13:09:33;;;;;;;17.77;13.03;;;3.10;92.20;;;;;;5108917;28;20473;-78
2020/12/11 13:12:00;;;;;;;20.77;13.95;;;3.10;92.20;;;;;;5094317;28;20501;-78
2020/12/11 13:14:29;;;;;;;20.63;13.90;;;3.10;92.20;;;;;;5091311;28;20706;-78
2020/12/11 13:16:56;;;;;;;21.20;14.13;;;3.10;92.10;;;;;;5095036;28;20404;-78
2020/12/11 13:19:43;;;;;;;20.50;14.53;;;3.10;92.00;;;;;;5093835;28;20416;-78
2020/12/11 13:27:36;;;;;;;24.38;15.88;;;2.90;92.30;;;;;;5112120;28;20408;-78
2020/12/11 13:30:03;;;;;;;22.52;14.75;;;2.90;92.30;;;;;;5090302;28;20416;-78
2020/12/11 13:32:30;;;;;;;25.27;15.35;;;2.90;92.30;;;;;;5094413;28;20404;-78
2020/12/11 13:34:57;;;;;;;27.42;19.10;;;3.00;93.20;;;;;;5089979;28;20926;-78
2020/12/11 13:37:33;;;;;;;18.13;13.53;;;3.10;92.60;;;;;;5094391;28;20494;-78
2020/12/11 13:40:03;;;;;;;19.17;14.02;;;3.00;92.10;;;;;;5090653;28;20791;-77
2020/12/11 13:42:30;;;;;;;17.65;13.52;;;3.10;92.30;;;;;;5094150;28;20413;-78
2020/12/11 13:44:59;;;;;;;19.02;14.02;;;3.00;92.50;;;;;;5090909;28;20432;-78
2020/12/11 13:47:26;;;;;;;22.67;18.73;;;3.00;92.40;;;;;;5101101;27;20402;-78
2020/12/11 13:49:52;;;;;;;21.05;15.00;;;3.00;92.20;;;;;;5108714;27;20492;-78
2020/12/11 13:52:21;;;;;;;20.23;13.93;;;3.00;92.20;;;;;;5086078;28;20463;-78
2020/12/11 13:54:48;;;;;;;15.85;11.90;;;3.00;92.20;;;;;;5111798;28;20428;-78